Smithboro, Illinois
Current Conditions -  °F | °C
As of 8:55 PM on Thursday 27 Nov 2014 (Local Time) from K3LF Reporting Station
Clear Clear  
Wind Chill: 15°   Ceiling: Unl
Heat Index: 15°   Visibility: 10mi
Dew Point: 11°   Wind: 0mph
Humidity: 83%   Direction: NA
Pressure: 30.44"   Gusts: NA
Location:  38.9°N, 89.34°W
Report Text: K3LF 280255Z AUTO 00000KT 10SM CLR M09/M12 A3044 RMK AO2 T10951119
Loading
Personal Weather Stations






























Interactive Weather Map New forecast layout! Learn more

10-Day Weather Forecast

Advertisements
Track Severe Weather on mobile